createdAt,value
2023-04-13T00:01:59.759Z,98294.08
2023-04-13T00:04:31.330Z,98295.94
2023-04-13T00:07:03.934Z,98301.80
2023-04-13T00:09:33.451Z,98303.04
2023-04-13T00:12:01.693Z,98308.08
2023-04-13T00:14:35.954Z,98313.53
2023-04-13T00:17:08.198Z,98311.19
2023-04-13T00:19:37.973Z,98310.95
2023-04-13T00:22:09.841Z,98312.11
2023-04-13T00:24:44.696Z,98307.62
2023-04-13T00:27:14.488Z,98306.95
2023-04-13T00:29:42.943Z,98306.42
2023-04-13T00:32:13.244Z,98307.14
2023-04-13T00:34:45.328Z,98302.50
2023-04-13T00:37:15.024Z,98296.36
2023-04-13T00:39:46.486Z,98293.02
2023-04-13T00:42:15.713Z,98285.59
2023-04-13T00:44:44.368Z,98276.88
2023-04-13T00:47:14.360Z,98272.54
2023-04-13T00:49:43.790Z,98281.83
2023-04-13T00:52:13.683Z,98281.59
2023-04-13T00:54:43.583Z,98279.14
2023-04-13T00:57:12.855Z,98276.07
2023-04-13T00:59:41.156Z,98283.55
2023-04-13T01:02:11.255Z,98271.95
2023-04-13T01:04:46.035Z,98266.79
2023-04-13T01:07:26.012Z,98276.20
2023-04-13T01:10:38.128Z,98283.17
2023-04-13T01:13:31.722Z,98284.61
2023-04-13T01:16:20.849Z,98286.65
2023-04-13T01:18:51.581Z,98269.55
2023-04-13T01:21:23.202Z,98275.73
2023-04-13T01:24:24.361Z,98288.34
2023-04-13T01:26:58.601Z,98283.82
2023-04-13T01:29:26.959Z,98280.48
2023-04-13T01:31:55.213Z,98285.84
2023-04-13T01:34:23.669Z,98282.35
2023-04-13T01:36:51.915Z,98276.98
2023-04-13T01:39:21.012Z,98275.31
2023-04-13T01:41:56.263Z,98277.39
2023-04-13T01:44:33.136Z,98283.63
2023-04-13T01:47:16.317Z,98276.73
2023-04-13T01:50:10.461Z,98273.99
2023-04-13T01:52:50.892Z,98278.33
2023-04-13T01:55:19.216Z,98285.44
2023-04-13T01:57:55.183Z,98288.63
2023-04-13T02:00:32.164Z,98285.16
2023-04-13T02:03:01.975Z,98288.72
2023-04-13T02:05:31.953Z,98282.85
2023-04-13T02:08:00.820Z,98286.31
2023-04-13T02:10:29.728Z,98291.62
2023-04-13T02:13:01.061Z,98292.40
2023-04-13T02:15:31.062Z,98293.77
2023-04-13T02:18:00.991Z,98291.08
2023-04-13T02:20:30.911Z,98281.42
2023-04-13T02:23:03.679Z,98274.60
2023-04-13T02:25:32.609Z,98273.39
2023-04-13T02:28:01.678Z,98274.65
2023-04-13T02:30:30.318Z,98272.78
2023-04-13T02:33:01.184Z,98275.16
2023-04-13T02:35:30.778Z,98276.30
2023-04-13T02:37:59.344Z,98276.59
2023-04-13T02:40:28.988Z,98283.42
2023-04-13T02:43:00.194Z,98286.59
2023-04-13T02:45:29.821Z,98285.52
2023-04-13T02:48:06.831Z,98283.11
2023-04-13T02:50:36.027Z,98282.67
2023-04-13T02:53:08.158Z,98289.16
2023-04-13T02:55:43.595Z,98289.52
2023-04-13T02:58:13.826Z,98293.24
2023-04-13T03:00:44.844Z,98292.98
2023-04-13T03:03:20.636Z,98284.08
2023-04-13T03:05:51.760Z,98286.08
2023-04-13T03:08:23.954Z,98290.99
2023-04-13T03:11:26.523Z,98296.29
2023-04-13T03:14:23.115Z,98291.12
2023-04-13T03:17:03.577Z,98288.73
2023-04-13T03:19:38.615Z,98301.81
2023-04-13T03:22:08.548Z,98299.85
2023-04-13T03:24:40.133Z,98307.30
2023-04-13T03:27:09.587Z,98305.74
2023-04-13T03:29:42.570Z,98307.42
2023-04-13T03:32:13.960Z,98311.02
2023-04-13T03:34:44.654Z,98310.41
2023-04-13T03:37:15.405Z,98310.62
2023-04-13T03:39:46.837Z,98310.12
2023-04-13T03:42:18.604Z,98313.41
2023-04-13T03:44:52.766Z,98312.55
2023-04-13T03:47:21.558Z,98315.80
2023-04-13T03:49:50.709Z,98320.02
2023-04-13T03:52:19.929Z,98319.23
2023-04-13T03:54:53.953Z,98317.96
2023-04-13T03:57:22.905Z,98318.61
2023-04-13T03:59:51.679Z,98315.27
2023-04-13T04:02:28.138Z,98315.58
2023-04-13T04:04:56.958Z,98316.31
2023-04-13T04:07:25.699Z,98317.44
2023-04-13T04:09:54.642Z,98315.73
2023-04-13T04:12:24.118Z,98320.64
2023-04-13T04:14:52.684Z,98327.39
2023-04-13T04:18:41.781Z,98338.75
2023-04-13T04:21:13.341Z,98332.69
2023-04-13T04:23:41.994Z,98333.88
2023-04-13T04:26:14.222Z,98337.91
2023-04-13T04:28:50.728Z,98339.52
2023-04-13T04:31:22.075Z,98346.34
2023-04-13T04:33:53.658Z,98349.95
2023-04-13T04:36:24.338Z,98349.92
2023-04-13T04:39:02.905Z,98346.90
2023-04-13T04:41:37.979Z,98352.33
2023-04-13T04:44:07.955Z,98354.61
2023-04-13T04:46:41.954Z,98347.77
2023-04-13T04:49:13.382Z,98337.63
2023-04-13T04:51:42.190Z,98332.52
2023-04-13T04:54:11.193Z,98328.94
2023-04-13T04:56:40.036Z,98329.30
2023-04-13T04:59:10.640Z,98326.85
2023-04-13T05:01:46.945Z,98325.39
2023-04-13T05:04:16.003Z,98330.16
2023-04-13T05:06:44.920Z,98325.92
2023-04-13T05:09:19.427Z,98326.45
2023-04-13T05:11:51.798Z,98325.70
2023-04-13T05:14:21.281Z,98329.94
2023-04-13T05:16:52.144Z,98331.61
2023-04-13T05:19:25.994Z,98332.42
2023-04-13T05:22:02.476Z,98330.15
2023-04-13T05:24:36.317Z,98337.27
2023-04-13T05:27:09.956Z,98340.31
2023-04-13T05:29:38.705Z,98345.03
2023-04-13T05:32:07.862Z,98355.08
2023-04-13T05:34:38.348Z,98357.23
2023-04-13T05:37:14.934Z,98359.33
2023-04-13T05:39:45.351Z,98357.14
2023-04-13T05:42:15.665Z,98357.30
2023-04-13T05:44:47.813Z,98354.40
2023-04-13T05:47:19.164Z,98354.34
2023-04-13T05:49:48.032Z,98355.95
2023-04-13T05:52:22.153Z,98354.81
2023-04-13T05:54:50.853Z,98349.49
2023-04-13T05:57:23.384Z,98352.44
2023-04-13T05:59:54.605Z,98353.06
2023-04-13T06:02:26.856Z,98351.53
2023-04-13T06:04:56.648Z,98353.83
2023-04-13T06:07:26.355Z,98354.73
2023-04-13T06:09:54.887Z,98351.76
2023-04-13T06:12:32.588Z,98358.11
2023-04-13T06:15:02.637Z,98360.30
2023-04-13T06:17:32.595Z,98362.23
2023-04-13T06:20:01.139Z,98362.89
2023-04-13T06:22:31.148Z,98363.27
2023-04-13T06:25:00.254Z,98362.08
2023-04-13T06:27:35.567Z,98367.40
2023-04-13T06:30:06.355Z,98370.54
2023-04-13T06:32:37.318Z,98369.77
2023-04-13T06:35:06.287Z,98375.96
2023-04-13T06:37:42.657Z,98379.80
2023-04-13T06:40:14.988Z,98382.03
2023-04-13T06:42:53.718Z,98386.20
2023-04-13T06:45:33.920Z,98387.02
2023-04-13T06:48:06.243Z,98387.27
2023-04-13T06:50:34.740Z,98391.29
2023-04-13T06:53:04.845Z,98389.64
2023-04-13T06:55:34.144Z,98393.17
2023-04-13T06:58:03.421Z,98392.54
2023-04-13T07:00:32.403Z,98393.66
2023-04-13T07:03:02.934Z,98393.89
2023-04-13T07:05:32.180Z,98394.98
2023-04-13T07:08:06.608Z,98392.41
2023-04-13T07:10:39.463Z,98391.48
2023-04-13T07:13:12.385Z,98392.86
2023-04-13T07:15:40.740Z,98398.44
2023-04-13T07:18:09.651Z,98395.33
2023-04-13T07:20:39.985Z,98392.89
2023-04-13T07:23:09.674Z,98389.38
2023-04-13T07:25:38.478Z,98388.45
2023-04-13T07:28:09.214Z,98387.98
2023-04-13T07:30:37.779Z,98389.79
2023-04-13T07:33:06.889Z,98389.52
2023-04-13T07:35:55.970Z,98392.73
2023-04-13T07:38:27.680Z,98395.59
2023-04-13T07:40:56.851Z,98399.83
2023-04-13T07:43:27.991Z,98402.41
2023-04-13T07:45:58.061Z,98404.90
2023-04-13T07:48:27.419Z,98411.83
2023-04-13T07:51:01.261Z,98411.54
2023-04-13T07:53:30.019Z,98417.23
2023-04-13T07:55:58.651Z,98418.27
2023-04-13T07:58:31.977Z,98420.00
2023-04-13T08:01:01.299Z,98419.39
2023-04-13T08:03:34.028Z,98418.00
2023-04-13T08:06:09.815Z,98420.51
2023-04-13T08:08:38.550Z,98420.50
2023-04-13T08:11:08.802Z,98425.63
2023-04-13T08:13:40.797Z,98427.56
2023-04-13T08:16:11.429Z,98428.71
2023-04-13T08:18:42.757Z,98427.36
2023-04-13T08:21:12.157Z,98433.91
2023-04-13T08:23:42.796Z,98431.48
2023-04-13T08:26:19.098Z,98422.88
2023-04-13T08:28:48.415Z,98424.95
2023-04-13T08:31:22.022Z,98426.79
2023-04-13T08:33:57.761Z,98428.63
2023-04-13T08:36:27.686Z,98426.77
2023-04-13T08:39:09.924Z,98429.27
2023-04-13T08:41:41.979Z,98425.59
2023-04-13T08:44:13.649Z,98421.90
2023-04-13T08:46:45.563Z,98417.55
2023-04-13T08:49:14.593Z,98414.70
2023-04-13T08:52:05.038Z,98418.02
2023-04-13T08:54:35.418Z,98421.01
2023-04-13T08:57:05.146Z,98422.95
2023-04-13T08:59:33.834Z,98418.08
2023-04-13T09:02:06.911Z,98418.13
2023-04-13T09:04:39.626Z,98422.37
2023-04-13T09:07:08.558Z,98422.19
2023-04-13T09:09:39.419Z,98427.83
2023-04-13T09:12:11.104Z,98436.61
2023-04-13T09:14:40.243Z,98435.80
2023-04-13T09:17:08.676Z,98439.06
2023-04-13T09:19:40.336Z,98437.38
2023-04-13T09:22:16.362Z,98431.77
2023-04-13T09:24:45.131Z,98434.18
2023-04-13T09:27:23.741Z,98434.33
2023-04-13T09:29:55.726Z,98433.19
2023-04-13T09:32:26.249Z,98432.78
2023-04-13T09:34:59.554Z,98435.29
2023-04-13T09:37:28.574Z,98435.11
2023-04-13T09:40:14.296Z,98432.65
2023-04-13T09:43:04.778Z,98431.23
2023-04-13T09:45:38.447Z,98429.39
2023-04-13T09:48:21.411Z,98438.90
2023-04-13T09:51:00.241Z,98435.87
2023-04-13T09:53:39.768Z,98441.83
2023-04-13T09:56:09.066Z,98444.92
2023-04-13T09:58:43.535Z,98440.67
2023-04-13T10:01:15.525Z,98443.20
2023-04-13T10:03:44.220Z,98445.62
2023-04-13T10:06:13.494Z,98447.54
2023-04-13T10:08:43.873Z,98448.83
2023-04-13T10:11:15.308Z,98445.30
2023-04-13T10:13:52.819Z,98441.17
2023-04-13T10:17:07.692Z,98437.95
2023-04-13T10:19:48.311Z,98444.52
2023-04-13T10:22:17.228Z,98443.52
2023-04-13T10:24:47.193Z,98445.55
2023-04-13T10:27:20.697Z,98448.63
2023-04-13T10:29:50.145Z,98449.40
2023-04-13T10:32:27.041Z,98448.59
2023-04-13T10:34:55.875Z,98448.98
2023-04-13T10:37:28.070Z,98453.79
2023-04-13T10:40:09.078Z,98450.79
2023-04-13T10:42:52.009Z,98451.41
2023-04-13T10:45:26.361Z,98451.81
2023-04-13T10:47:55.957Z,98450.83
2023-04-13T10:50:25.374Z,98453.36
2023-04-13T10:53:07.886Z,98462.41
2023-04-13T10:55:36.371Z,98466.52
2023-04-13T10:58:14.580Z,98473.30
2023-04-13T11:00:46.008Z,98475.06
2023-04-13T11:03:16.733Z,98479.12
2023-04-13T11:05:59.258Z,98480.86
2023-04-13T11:08:28.669Z,98480.75
2023-04-13T11:10:57.686Z,98481.69
2023-04-13T11:13:27.006Z,98480.46
2023-04-13T11:16:03.256Z,98484.46
2023-04-13T11:18:33.261Z,98491.27
2023-04-13T11:21:06.028Z,98489.36
2023-04-13T11:23:36.488Z,98488.21
2023-04-13T11:26:05.512Z,98490.16
2023-04-13T11:28:42.031Z,98488.08
2023-04-13T11:31:12.094Z,98487.92
2023-04-13T11:33:41.613Z,98487.30
2023-04-13T11:36:12.151Z,98479.96
2023-04-13T11:38:42.545Z,98482.80
2023-04-13T11:43:46.670Z,98481.90
2023-04-13T11:46:23.282Z,98484.26
2023-04-13T11:48:52.749Z,98484.05
2023-04-13T11:51:21.292Z,98487.39
2023-04-13T11:53:51.513Z,98487.56
2023-04-13T11:56:21.134Z,98488.40
2023-04-13T11:58:53.450Z,98492.30
2023-04-13T12:01:26.167Z,98491.55
2023-04-13T12:06:38.652Z,98498.67
2023-04-13T12:09:13.412Z,98498.45
2023-04-13T12:11:50.334Z,98501.77
2023-04-13T12:17:04.511Z,98500.48
2023-04-13T12:19:46.661Z,98505.48
2023-04-13T12:22:15.900Z,98501.30
2023-04-13T12:24:48.209Z,98504.60
2023-04-13T12:27:19.152Z,98504.23
2023-04-13T12:29:49.155Z,98501.18
2023-04-13T12:32:17.722Z,98504.30
2023-04-13T12:34:47.105Z,98505.38
2023-04-13T12:37:15.385Z,98504.08
2023-04-13T12:39:43.872Z,98504.21
2023-04-13T12:42:12.401Z,98502.44
2023-04-13T12:44:41.198Z,98505.84
2023-04-13T12:47:09.556Z,98509.88
2023-04-13T12:49:37.988Z,98510.59
2023-04-13T12:52:07.338Z,98512.73
2023-04-13T12:54:35.720Z,98511.48
2023-04-13T12:57:03.994Z,98510.21
2023-04-13T12:59:32.629Z,98514.45
2023-04-13T13:02:01.315Z,98518.41
2023-04-13T13:04:31.805Z,98515.64
2023-04-13T13:07:01.132Z,98509.11
2023-04-13T13:09:30.122Z,98512.96
2023-04-13T13:11:59.441Z,98511.27
2023-04-13T13:14:28.266Z,98518.73
2023-04-13T13:16:56.606Z,98526.30
2023-04-13T13:19:26.364Z,98534.21
2023-04-13T13:21:54.795Z,98532.73
2023-04-13T13:24:23.580Z,98539.00
2023-04-13T13:27:24.493Z,98543.70
2023-04-13T13:29:41.656Z,98545.02
2023-04-13T13:32:13.967Z,98547.90
2023-04-13T13:34:43.091Z,98543.58
2023-04-13T13:37:12.165Z,98544.44
2023-04-13T13:39:41.327Z,98541.55
2023-04-13T13:42:10.692Z,98538.42
2023-04-13T13:44:39.031Z,98541.89
2023-04-13T13:47:07.916Z,98539.33
2023-04-13T13:49:38.534Z,98542.45
2023-04-13T13:52:16.028Z,98538.67
2023-04-13T13:54:50.218Z,98537.80
2023-04-13T13:57:18.595Z,98537.36
2023-04-13T13:59:49.283Z,98541.30
2023-04-13T14:02:18.325Z,98541.36
2023-04-13T14:04:47.189Z,98539.46
2023-04-13T14:07:15.682Z,98541.95
2023-04-13T14:09:45.541Z,98544.33
2023-04-13T14:12:13.972Z,98546.09
2023-04-13T14:14:42.594Z,98547.58
2023-04-13T14:17:10.757Z,98547.45
2023-04-13T14:19:40.258Z,98548.15
2023-04-13T14:22:08.574Z,98549.92
2023-04-13T14:24:39.025Z,98549.92
2023-04-13T14:27:08.043Z,98553.17
2023-04-13T14:29:36.502Z,98553.54
2023-04-13T14:32:09.311Z,98559.38
2023-04-13T14:34:37.874Z,98558.87
2023-04-13T14:37:06.688Z,98560.82
2023-04-13T14:39:36.922Z,98560.31
2023-04-13T14:42:06.472Z,98562.27
2023-04-13T14:44:34.929Z,98563.06
2023-04-13T14:47:11.355Z,98561.90
2023-04-13T14:49:40.317Z,98566.05
2023-04-13T14:52:09.197Z,98570.16
2023-04-13T14:54:39.308Z,98570.39
2023-04-13T14:57:10.042Z,98574.58
2023-04-13T14:59:38.494Z,98577.27
2023-04-13T15:02:08.817Z,98578.90
2023-04-13T15:04:37.883Z,98580.44
2023-04-13T15:07:06.321Z,98580.98
2023-04-13T15:09:34.715Z,98583.45
2023-04-13T15:12:04.783Z,98589.23
2023-04-13T15:14:34.834Z,98587.06
2023-04-13T15:17:07.448Z,98586.30
2023-04-13T15:19:36.422Z,98586.63
2023-04-13T15:22:04.839Z,98587.00
2023-04-13T15:24:33.480Z,98586.03
2023-04-13T15:27:02.081Z,98588.00
2023-04-13T15:29:31.066Z,98593.39
2023-04-13T15:32:00.479Z,98593.86
2023-04-13T15:34:28.971Z,98599.17
2023-04-13T15:36:59.983Z,98602.05
2023-04-13T15:39:29.013Z,98603.33
2023-04-13T15:42:00.663Z,98605.14
2023-04-13T15:44:29.206Z,98605.94
2023-04-13T15:46:57.890Z,98605.27
2023-04-13T15:49:26.277Z,98605.20
2023-04-13T15:51:54.807Z,98608.98
2023-04-13T15:54:23.215Z,98612.20
2023-04-13T15:56:51.803Z,98612.73
2023-04-13T15:59:21.672Z,98616.15
2023-04-13T16:01:50.847Z,98617.59
2023-04-13T16:04:19.646Z,98616.52
2023-04-13T16:06:55.720Z,98617.51
2023-04-13T16:09:35.462Z,98618.21
2023-04-13T16:12:07.866Z,98618.77
2023-04-13T16:14:42.182Z,98618.74
2023-04-13T16:17:13.306Z,98624.89
2023-04-13T16:19:47.109Z,98626.04
2023-04-13T16:22:18.051Z,98626.63
2023-04-13T16:24:49.784Z,98627.41
2023-04-13T16:27:18.360Z,98627.95
2023-04-13T16:29:46.809Z,98628.07
2023-04-13T16:34:59.317Z,98630.65
2023-04-13T16:37:27.730Z,98627.91
2023-04-13T16:39:57.993Z,98633.02
2023-04-13T16:42:26.331Z,98634.37
2023-04-13T16:44:54.642Z,98637.83
2023-04-13T16:47:23.272Z,98630.88
2023-04-13T16:49:52.182Z,98632.09
2023-04-13T16:52:20.437Z,98632.14
2023-04-13T16:54:50.047Z,98634.75
2023-04-13T16:57:18.429Z,98639.34
2023-04-13T16:59:47.349Z,98645.36
2023-04-13T17:02:30.334Z,98652.59
2023-04-13T17:04:59.807Z,98658.76
2023-04-13T17:07:29.923Z,98665.02
2023-04-13T17:10:18.709Z,98671.22
2023-04-13T17:12:48.297Z,98671.31
2023-04-13T17:15:19.141Z,98674.94
2023-04-13T17:17:48.128Z,98680.27
2023-04-13T17:20:17.612Z,98677.95
2023-04-13T17:22:47.296Z,98680.27
2023-04-13T17:25:17.134Z,98680.22
2023-04-13T17:27:47.417Z,98686.55
2023-04-13T17:30:16.048Z,98684.67
2023-04-13T17:32:57.903Z,98685.45
2023-04-13T17:35:27.402Z,98685.23
2023-04-13T17:37:55.635Z,98684.52
2023-04-13T17:40:31.769Z,98684.70
2023-04-13T17:43:00.522Z,98685.67
2023-04-13T17:45:28.955Z,98689.08
2023-04-13T17:48:02.889Z,98694.14
2023-04-13T17:50:32.759Z,98693.41
2023-04-13T17:53:04.380Z,98696.60
2023-04-13T17:55:37.136Z,98704.23
2023-04-13T17:58:06.172Z,98704.33
2023-04-13T18:00:34.652Z,98707.60
2023-04-13T18:03:05.787Z,98709.52
2023-04-13T18:05:35.530Z,98709.98
2023-04-13T18:08:04.112Z,98709.80
2023-04-13T18:10:33.848Z,98713.86
2023-04-13T18:13:08.399Z,98715.20
2023-04-13T18:15:39.566Z,98714.80
2023-04-13T18:18:08.097Z,98714.25
2023-04-13T18:20:42.967Z,98716.64
2023-04-13T18:23:12.136Z,98718.74
2023-04-13T18:25:41.038Z,98721.29
2023-04-13T18:28:09.281Z,98723.77
2023-04-13T18:30:40.302Z,98723.44
2023-04-13T18:33:10.026Z,98717.92
2023-04-13T18:35:46.029Z,98718.13
2023-04-13T18:38:14.789Z,98720.84
2023-04-13T18:40:44.480Z,98720.34
2023-04-13T18:43:13.504Z,98720.48
2023-04-13T18:45:42.689Z,98720.42
2023-04-13T18:48:11.663Z,98722.84
2023-04-13T18:50:40.716Z,98720.36
2023-04-13T18:53:09.929Z,98724.45
2023-04-13T18:55:39.786Z,98722.20
2023-04-13T18:58:10.621Z,98720.30
2023-04-13T19:00:39.303Z,98719.11
2023-04-13T19:03:09.070Z,98717.94
2023-04-13T19:05:37.747Z,98719.63
2023-04-13T19:08:10.019Z,98720.44
2023-04-13T19:10:39.037Z,98714.58
2023-04-13T19:13:07.541Z,98716.70
2023-04-13T19:15:36.639Z,98718.98
2023-04-13T19:18:06.401Z,98720.30
2023-04-13T19:20:35.008Z,98720.64
2023-04-13T19:23:04.196Z,98723.09
2023-04-13T19:25:32.577Z,98720.20
2023-04-13T19:28:02.211Z,98724.14
2023-04-13T19:30:30.712Z,98726.27
2023-04-13T19:33:00.062Z,98721.39
2023-04-13T19:35:29.843Z,98723.20
2023-04-13T19:37:58.243Z,98726.51
2023-04-13T19:40:33.179Z,98731.49
2023-04-13T19:43:02.037Z,98731.36
2023-04-13T19:45:31.198Z,98733.02
2023-04-13T19:48:00.200Z,98733.27
2023-04-13T19:50:29.268Z,98733.69
2023-04-13T19:52:58.585Z,98733.48
2023-04-13T19:55:27.637Z,98732.17
2023-04-13T19:57:56.119Z,98735.82
2023-04-13T20:00:24.716Z,98734.34
2023-04-13T20:03:02.983Z,98739.52
2023-04-13T20:05:33.091Z,98743.48
2023-04-13T20:08:01.497Z,98745.04
2023-04-13T20:10:31.901Z,98748.01
2023-04-13T20:13:01.626Z,98748.95
2023-04-13T20:15:33.264Z,98750.77
2023-04-13T20:18:04.065Z,98751.48
2023-04-13T20:20:33.732Z,98750.70
2023-04-13T20:23:02.750Z,98749.38
2023-04-13T20:25:31.194Z,98747.48
2023-04-13T20:28:00.837Z,98748.33
2023-04-13T20:30:29.489Z,98744.45
2023-04-13T20:32:58.658Z,98744.80
2023-04-13T20:35:28.059Z,98745.36
2023-04-13T20:38:00.133Z,98741.83
2023-04-13T20:40:31.096Z,98747.20
2023-04-13T20:42:59.458Z,98747.27
2023-04-13T20:45:27.728Z,98747.27
2023-04-13T20:47:57.598Z,98743.35
2023-04-13T20:50:28.538Z,98743.09
2023-04-13T20:52:59.888Z,98740.84
2023-04-13T20:55:28.117Z,98745.08
2023-04-13T20:57:57.038Z,98748.63
2023-04-13T21:00:27.776Z,98748.38
2023-04-13T21:02:58.271Z,98748.67
2023-04-13T21:05:26.713Z,98751.60
2023-04-13T21:07:57.092Z,98752.15
2023-04-13T21:10:30.210Z,98752.77
2023-04-13T21:12:59.998Z,98748.86
2023-04-13T21:15:28.556Z,98751.86
2023-04-13T21:18:07.595Z,98753.54
2023-04-13T21:20:36.166Z,98758.11
2023-04-13T21:23:04.682Z,98756.23
2023-04-13T21:25:36.598Z,98757.04
2023-04-13T21:28:05.005Z,98755.73
2023-04-13T21:30:33.303Z,98757.77
2023-04-13T21:33:03.034Z,98751.69
2023-04-13T21:35:32.599Z,98750.73
2023-04-13T21:38:04.575Z,98748.58
2023-04-13T21:40:35.068Z,98750.33
2023-04-13T21:43:03.681Z,98748.80
2023-04-13T21:45:35.606Z,98748.22
2023-04-13T21:48:04.690Z,98752.55
2023-04-13T21:50:32.980Z,98752.41
2023-04-13T21:53:01.942Z,98755.59
2023-04-13T21:55:30.332Z,98754.52
2023-04-13T21:57:58.808Z,98753.94
2023-04-13T22:00:27.681Z,98750.30
2023-04-13T22:02:56.897Z,98749.05
2023-04-13T22:05:25.313Z,98744.64
2023-04-13T22:07:54.331Z,98743.52
2023-04-13T22:10:23.192Z,98742.86
2023-04-13T22:12:51.890Z,98746.08
2023-04-13T22:15:22.798Z,98739.66
2023-04-13T22:17:52.876Z,98748.73
2023-04-13T22:20:21.281Z,98747.29
2023-04-13T22:22:49.836Z,98746.52
2023-04-13T22:25:18.463Z,98744.36
2023-04-13T22:27:46.730Z,98745.17
2023-04-13T22:30:17.187Z,98743.58
2023-04-13T22:32:46.285Z,98744.47
2023-04-13T22:35:15.097Z,98747.41
2023-04-13T22:37:43.402Z,98748.13
2023-04-13T22:40:12.329Z,98744.48
2023-04-13T22:42:41.319Z,98746.79
2023-04-13T22:45:13.385Z,98744.27
2023-04-13T22:47:43.075Z,98749.09
2023-04-13T22:50:11.796Z,98746.83
2023-04-13T22:52:43.929Z,98745.56
2023-04-13T22:55:12.304Z,98751.33
2023-04-13T22:57:40.892Z,98754.64
2023-04-13T23:00:12.333Z,98751.87
2023-04-13T23:02:42.481Z,98756.30
2023-04-13T23:05:11.257Z,98759.50
2023-04-13T23:07:39.727Z,98762.34
2023-04-13T23:10:09.406Z,98761.70
2023-04-13T23:12:38.082Z,98762.70
2023-04-13T23:15:07.085Z,98762.30
2023-04-13T23:17:35.776Z,98764.74
2023-04-13T23:20:08.611Z,98763.60
2023-04-13T23:22:37.528Z,98759.05
2023-04-13T23:25:06.532Z,98758.84
2023-04-13T23:27:35.115Z,98758.28
2023-04-13T23:30:04.358Z,98760.81
2023-04-13T23:32:36.377Z,98766.55
2023-04-13T23:35:05.844Z,98765.23
2023-04-13T23:37:34.396Z,98763.28
2023-04-13T23:40:04.058Z,98765.86
2023-04-13T23:42:37.289Z,98769.49
2023-04-13T23:45:06.713Z,98773.56
2023-04-13T23:47:36.157Z,98778.73
2023-04-13T23:50:05.014Z,98777.63
2023-04-13T23:52:34.464Z,98776.22
2023-04-13T23:55:03.723Z,98774.95
2023-04-13T23:57:35.529Z,98773.89
